sensor_id;sensor_type;location;lat;lon;timestamp;temperature;humidity
38995;DHT22;24769;18.712;99.000;2024-02-26T00:01:48;18.20;53.40
38995;DHT22;24769;18.712;99.000;2024-02-26T00:04:15;18.00;53.40
38995;DHT22;24769;18.712;99.000;2024-02-26T00:06:42;17.90;55.10
38995;DHT22;24769;18.712;99.000;2024-02-26T00:09:09;18.00;53.80
38995;DHT22;24769;18.712;99.000;2024-02-26T00:11:36;18.10;52.20
38995;DHT22;24769;18.712;99.000;2024-02-26T00:14:03;18.20;52.10
38995;DHT22;24769;18.712;99.000;2024-02-26T00:16:30;18.30;51.40
38995;DHT22;24769;18.712;99.000;2024-02-26T00:18:57;18.40;51.00
38995;DHT22;24769;18.712;99.000;2024-02-26T00:21:24;18.50;50.30
38995;DHT22;24769;18.712;99.000;2024-02-26T00:23:52;18.50;48.60
38995;DHT22;24769;18.712;99.000;2024-02-26T00:26:19;18.40;50.80
38995;DHT22;24769;18.712;99.000;2024-02-26T00:28:46;18.50;51.30
38995;DHT22;24769;18.712;99.000;2024-02-26T00:31:12;18.60;50.50
38995;DHT22;24769;18.712;99.000;2024-02-26T00:33:39;18.80;49.10
38995;DHT22;24769;18.712;99.000;2024-02-26T00:36:06;18.90;51.30
38995;DHT22;24769;18.712;99.000;2024-02-26T00:38:33;19.00;49.70
38995;DHT22;24769;18.712;99.000;2024-02-26T00:40:59;19.00;51.90
38995;DHT22;24769;18.712;99.000;2024-02-26T00:43:26;19.20;47.50
38995;DHT22;24769;18.712;99.000;2024-02-26T00:45:53;19.30;49.00
38995;DHT22;24769;18.712;99.000;2024-02-26T00:48:20;19.40;49.20
38995;DHT22;24769;18.712;99.000;2024-02-26T00:50:47;19.60;48.70
38995;DHT22;24769;18.712;99.000;2024-02-26T00:53:13;19.80;46.10
38995;DHT22;24769;18.712;99.000;2024-02-26T00:55:40;19.90;43.60
38995;DHT22;24769;18.712;99.000;2024-02-26T00:58:07;20.10;36.80
38995;DHT22;24769;18.712;99.000;2024-02-26T01:00:34;20.40;33.40
38995;DHT22;24769;18.712;99.000;2024-02-26T01:03:00;20.60;32.80
38995;DHT22;24769;18.712;99.000;2024-02-26T01:05:27;20.80;30.60
38995;DHT22;24769;18.712;99.000;2024-02-26T01:07:54;21.00;28.90
38995;DHT22;24769;18.712;99.000;2024-02-26T01:10:20;21.10;31.20
38995;DHT22;24769;18.712;99.000;2024-02-26T01:12:47;21.10;25.30
38995;DHT22;24769;18.712;99.000;2024-02-26T01:15:14;21.20;22.90
38995;DHT22;24769;18.712;99.000;2024-02-26T01:17:41;21.20;19.40
38995;DHT22;24769;18.712;99.000;2024-02-26T01:20:08;21.30;18.60
38995;DHT22;24769;18.712;99.000;2024-02-26T01:22:37;21.40;19.00
38995;DHT22;24769;18.712;99.000;2024-02-26T01:25:04;21.60;18.60
38995;DHT22;24769;18.712;99.000;2024-02-26T01:27:31;21.80;17.80
38995;DHT22;24769;18.712;99.000;2024-02-26T01:29:58;22.00;15.50
38995;DHT22;24769;18.712;99.000;2024-02-26T01:32:25;22.20;14.40
38995;DHT22;24769;18.712;99.000;2024-02-26T01:34:51;22.20;14.50
38995;DHT22;24769;18.712;99.000;2024-02-26T01:37:18;22.20;13.50
38995;DHT22;24769;18.712;99.000;2024-02-26T01:39:45;22.10;13.40
38995;DHT22;24769;18.712;99.000;2024-02-26T01:42:11;22.30;14.30
38995;DHT22;24769;18.712;99.000;2024-02-26T01:44:38;22.50;12.90
38995;DHT22;24769;18.712;99.000;2024-02-26T01:47:09;22.70;14.20
38995;DHT22;24769;18.712;99.000;2024-02-26T01:49:36;22.70;12.10
38995;DHT22;24769;18.712;99.000;2024-02-26T01:52:04;22.70;11.70
38995;DHT22;24769;18.712;99.000;2024-02-26T01:54:35;22.70;11.50
38995;DHT22;24769;18.712;99.000;2024-02-26T01:57:05;22.90;11.30
38995;DHT22;24769;18.712;99.000;2024-02-26T01:59:33;23.20;10.00
38995;DHT22;24769;18.712;99.000;2024-02-26T02:02:03;23.40;9.40
38995;DHT22;24769;18.712;99.000;2024-02-26T02:04:30;23.50;8.60
38995;DHT22;24769;18.712;99.000;2024-02-26T02:06:58;23.80;8.50
38995;DHT22;24769;18.712;99.000;2024-02-26T02:09:27;24.00;6.80
38995;DHT22;24769;18.712;99.000;2024-02-26T02:11:54;24.20;6.00
38995;DHT22;24769;18.712;99.000;2024-02-26T02:14:22;24.30;6.60
38995;DHT22;24769;18.712;99.000;2024-02-26T02:16:49;24.50;5.80
38995;DHT22;24769;18.712;99.000;2024-02-26T02:19:15;24.70;4.30
38995;DHT22;24769;18.712;99.000;2024-02-26T02:21:42;24.50;4.00
38995;DHT22;24769;18.712;99.000;2024-02-26T02:24:09;25.00;5.30
38995;DHT22;24769;18.712;99.000;2024-02-26T02:26:36;24.90;3.50
38995;DHT22;24769;18.712;99.000;2024-02-26T02:29:03;24.90;2.60
38995;DHT22;24769;18.712;99.000;2024-02-26T02:31:29;24.80;3.80
38995;DHT22;24769;18.712;99.000;2024-02-26T02:33:56;25.10;3.30
38995;DHT22;24769;18.712;99.000;2024-02-26T02:36:23;25.20;2.30
38995;DHT22;24769;18.712;99.000;2024-02-26T02:38:51;25.50;3.10
38995;DHT22;24769;18.712;99.000;2024-02-26T02:41:18;25.70;1.20
38995;DHT22;24769;18.712;99.000;2024-02-26T02:43:45;25.90;1.00
38995;DHT22;24769;18.712;99.000;2024-02-26T02:46:12;25.90;1.00
38995;DHT22;24769;18.712;99.000;2024-02-26T02:48:39;26.00;1.00
38995;DHT22;24769;18.712;99.000;2024-02-26T02:51:05;26.00;1.00
38995;DHT22;24769;18.712;99.000;2024-02-26T02:53:32;26.40;1.00
38995;DHT22;24769;18.712;99.000;2024-02-26T02:55:59;26.40;1.00
38995;DHT22;24769;18.712;99.000;2024-02-26T02:58:26;26.80;1.00
38995;DHT22;24769;18.712;99.000;2024-02-26T03:00:52;26.70;1.00
38995;DHT22;24769;18.712;99.000;2024-02-26T03:03:21;26.70;1.00
38995;DHT22;24769;18.712;99.000;2024-02-26T03:05:50;26.80;1.00
38995;DHT22;24769;18.712;99.000;2024-02-26T03:08:17;27.20;1.00
38995;DHT22;24769;18.712;99.000;2024-02-26T03:10:45;27.50;1.00
38995;DHT22;24769;18.712;99.000;2024-02-26T03:13:12;27.20;1.00
38995;DHT22;24769;18.712;99.000;2024-02-26T03:15:38;27.10;1.00
38995;DHT22;24769;18.712;99.000;2024-02-26T03:18:05;27.40;1.00
38995;DHT22;24769;18.712;99.000;2024-02-26T03:20:32;27.90;1.00
38995;DHT22;24769;18.712;99.000;2024-02-26T03:22:59;28.00;1.00
38995;DHT22;24769;18.712;99.000;2024-02-26T03:25:25;28.00;1.00
38995;DHT22;24769;18.712;99.000;2024-02-26T03:27:52;27.90;1.00
38995;DHT22;24769;18.712;99.000;2024-02-26T03:30:19;27.50;1.00
38995;DHT22;24769;18.712;99.000;2024-02-26T03:32:46;27.90;1.00
38995;DHT22;24769;18.712;99.000;2024-02-26T03:35:13;28.20;1.00
38995;DHT22;24769;18.712;99.000;2024-02-26T03:37:40;28.30;1.00
38995;DHT22;24769;18.712;99.000;2024-02-26T03:40:07;28.50;1.00
38995;DHT22;24769;18.712;99.000;2024-02-26T03:42:35;28.40;1.00
38995;DHT22;24769;18.712;99.000;2024-02-26T03:45:02;28.50;1.00
38995;DHT22;24769;18.712;99.000;2024-02-26T03:47:28;28.40;1.00
38995;DHT22;24769;18.712;99.000;2024-02-26T03:49:55;28.60;1.00
38995;DHT22;24769;18.712;99.000;2024-02-26T03:52:22;28.70;1.00
38995;DHT22;24769;18.712;99.000;2024-02-26T03:54:49;28.80;1.00
38995;DHT22;24769;18.712;99.000;2024-02-26T03:57:16;29.00;1.00
38995;DHT22;24769;18.712;99.000;2024-02-26T03:59:43;29.00;1.00
38995;DHT22;24769;18.712;99.000;2024-02-26T04:02:09;29.00;1.00
38995;DHT22;24769;18.712;99.000;2024-02-26T04:04:36;29.40;1.00
38995;DHT22;24769;18.712;99.000;2024-02-26T04:07:03;29.50;1.00
38995;DHT22;24769;18.712;99.000;2024-02-26T04:09:31;29.80;1.00
38995;DHT22;24769;18.712;99.000;2024-02-26T04:11:58;29.70;1.00
38995;DHT22;24769;18.712;99.000;2024-02-26T04:14:25;30.00;1.00
38995;DHT22;24769;18.712;99.000;2024-02-26T04:16:52;29.80;1.00
38995;DHT22;24769;18.712;99.000;2024-02-26T04:19:20;29.90;1.00
38995;DHT22;24769;18.712;99.000;2024-02-26T04:21:47;29.80;1.00
38995;DHT22;24769;18.712;99.000;2024-02-26T04:24:14;29.90;1.00
38995;DHT22;24769;18.712;99.000;2024-02-26T04:26:41;30.40;1.00
38995;DHT22;24769;18.712;99.000;2024-02-26T04:29:07;30.70;1.00
38995;DHT22;24769;18.712;99.000;2024-02-26T04:31:34;30.30;1.00
38995;DHT22;24769;18.712;99.000;2024-02-26T04:34:01;30.50;1.00
38995;DHT22;24769;18.712;99.000;2024-02-26T04:36:27;30.80;1.00
38995;DHT22;24769;18.712;99.000;2024-02-26T04:38:54;30.70;1.00
38995;DHT22;24769;18.712;99.000;2024-02-26T04:41:22;30.50;1.00
38995;DHT22;24769;18.712;99.000;2024-02-26T04:43:49;31.00;1.00
38995;DHT22;24769;18.712;99.000;2024-02-26T04:46:16;31.40;1.00
38995;DHT22;24769;18.712;99.000;2024-02-26T04:48:43;31.20;1.00
38995;DHT22;24769;18.712;99.000;2024-02-26T04:51:11;31.00;1.00
38995;DHT22;24769;18.712;99.000;2024-02-26T04:53:38;30.90;1.00
38995;DHT22;24769;18.712;99.000;2024-02-26T04:56:05;31.30;1.00
38995;DHT22;24769;18.712;99.000;2024-02-26T04:58:32;31.20;1.00
38995;DHT22;24769;18.712;99.000;2024-02-26T05:00:59;31.20;1.00
38995;DHT22;24769;18.712;99.000;2024-02-26T05:03:25;31.30;1.00
38995;DHT22;24769;18.712;99.000;2024-02-26T05:05:52;31.10;1.00
38995;DHT22;24769;18.712;99.000;2024-02-26T05:08:19;31.40;1.00
38995;DHT22;24769;18.712;99.000;2024-02-26T05:10:46;32.00;1.00
38995;DHT22;24769;18.712;99.000;2024-02-26T05:13:13;32.40;1.00
38995;DHT22;24769;18.712;99.000;2024-02-26T05:15:41;32.20;1.00
38995;DHT22;24769;18.712;99.000;2024-02-26T05:18:08;32.00;1.00
38995;DHT22;24769;18.712;99.000;2024-02-26T05:20:35;32.10;1.00
38995;DHT22;24769;18.712;99.000;2024-02-26T05:23:02;32.00;1.00
38995;DHT22;24769;18.712;99.000;2024-02-26T05:25:30;32.00;1.00
38995;DHT22;24769;18.712;99.000;2024-02-26T05:27:57;32.40;1.00
38995;DHT22;24769;18.712;99.000;2024-02-26T05:30:24;32.60;1.00
38995;DHT22;24769;18.712;99.000;2024-02-26T05:32:53;32.40;1.00
38995;DHT22;24769;18.712;99.000;2024-02-26T05:35:19;32.60;1.00
38995;DHT22;24769;18.712;99.000;2024-02-26T05:37:46;32.90;1.00
38995;DHT22;24769;18.712;99.000;2024-02-26T05:40:13;33.10;1.00
38995;DHT22;24769;18.712;99.000;2024-02-26T05:42:40;33.40;1.00
38995;DHT22;24769;18.712;99.000;2024-02-26T05:45:07;32.90;1.00
38995;DHT22;24769;18.712;99.000;2024-02-26T05:47:34;32.90;1.00
38995;DHT22;24769;18.712;99.000;2024-02-26T05:50:02;32.90;1.00
38995;DHT22;24769;18.712;99.000;2024-02-26T05:52:28;33.40;1.00
38995;DHT22;24769;18.712;99.000;2024-02-26T05:54:58;33.30;1.00
38995;DHT22;24769;18.712;99.000;2024-02-26T05:57:25;33.20;1.00
38995;DHT22;24769;18.712;99.000;2024-02-26T05:59:52;33.40;1.00
38995;DHT22;24769;18.712;99.000;2024-02-26T06:02:18;33.30;1.00
38995;DHT22;24769;18.712;99.000;2024-02-26T06:04:45;33.20;1.00
38995;DHT22;24769;18.712;99.000;2024-02-26T06:07:13;33.20;1.00
38995;DHT22;24769;18.712;99.000;2024-02-26T06:09:39;33.70;1.00
38995;DHT22;24769;18.712;99.000;2024-02-26T06:12:06;33.50;1.00
38995;DHT22;24769;18.712;99.000;2024-02-26T06:14:33;33.40;1.00
38995;DHT22;24769;18.712;99.000;2024-02-26T06:17:00;33.70;1.00
38995;DHT22;24769;18.712;99.000;2024-02-26T06:19:27;33.60;1.00
38995;DHT22;24769;18.712;99.000;2024-02-26T06:21:53;33.60;1.00
38995;DHT22;24769;18.712;99.000;2024-02-26T06:24:20;33.00;1.00
38995;DHT22;24769;18.712;99.000;2024-02-26T06:26:48;33.50;1.00
38995;DHT22;24769;18.712;99.000;2024-02-26T06:29:15;33.80;1.00
38995;DHT22;24769;18.712;99.000;2024-02-26T06:31:42;33.80;1.00
38995;DHT22;24769;18.712;99.000;2024-02-26T06:34:09;33.70;1.00
38995;DHT22;24769;18.712;99.000;2024-02-26T06:36:35;33.90;1.00
38995;DHT22;24769;18.712;99.000;2024-02-26T06:39:02;33.90;1.00
38995;DHT22;24769;18.712;99.000;2024-02-26T06:41:31;33.70;1.00
38995;DHT22;24769;18.712;99.000;2024-02-26T06:43:58;33.70;1.00
38995;DHT22;24769;18.712;99.000;2024-02-26T06:46:25;33.70;1.00
38995;DHT22;24769;18.712;99.000;2024-02-26T06:48:52;33.90;1.00
38995;DHT22;24769;18.712;99.000;2024-02-26T06:51:19;33.90;1.00
38995;DHT22;24769;18.712;99.000;2024-02-26T06:53:46;33.90;1.00
38995;DHT22;24769;18.712;99.000;2024-02-26T06:56:13;33.80;1.00
38995;DHT22;24769;18.712;99.000;2024-02-26T06:58:39;33.80;1.00
38995;DHT22;24769;18.712;99.000;2024-02-26T07:01:06;33.80;1.00
38995;DHT22;24769;18.712;99.000;2024-02-26T07:03:34;33.90;1.00
38995;DHT22;24769;18.712;99.000;2024-02-26T07:06:01;33.90;1.00
38995;DHT22;24769;18.712;99.000;2024-02-26T07:08:28;34.00;1.00
38995;DHT22;24769;18.712;99.000;2024-02-26T07:10:55;34.00;1.00
38995;DHT22;24769;18.712;99.000;2024-02-26T07:13:22;33.90;1.00
38995;DHT22;24769;18.712;99.000;2024-02-26T07:15:49;34.00;1.00
38995;DHT22;24769;18.712;99.000;2024-02-26T07:18:16;34.20;1.00
38995;DHT22;24769;18.712;99.000;2024-02-26T07:20:43;34.20;1.00
38995;DHT22;24769;18.712;99.000;2024-02-26T07:23:10;34.20;1.00
38995;DHT22;24769;18.712;99.000;2024-02-26T07:25:36;34.20;1.00
38995;DHT22;24769;18.712;99.000;2024-02-26T07:28:04;33.90;1.00
38995;DHT22;24769;18.712;99.000;2024-02-26T07:30:30;33.70;1.00
38995;DHT22;24769;18.712;99.000;2024-02-26T07:32:57;33.60;1.00
38995;DHT22;24769;18.712;99.000;2024-02-26T07:35:24;33.60;1.00
38995;DHT22;24769;18.712;99.000;2024-02-26T07:37:51;33.90;1.00
38995;DHT22;24769;18.712;99.000;2024-02-26T07:40:18;33.90;1.00
38995;DHT22;24769;18.712;99.000;2024-02-26T07:42:45;33.80;1.00
38995;DHT22;24769;18.712;99.000;2024-02-26T07:45:11;33.90;1.00
38995;DHT22;24769;18.712;99.000;2024-02-26T07:47:38;34.20;1.00
38995;DHT22;24769;18.712;99.000;2024-02-26T07:50:08;34.30;1.00
38995;DHT22;24769;18.712;99.000;2024-02-26T07:52:35;34.30;1.00
38995;DHT22;24769;18.712;99.000;2024-02-26T07:55:02;34.00;1.00
38995;DHT22;24769;18.712;99.000;2024-02-26T07:57:32;34.00;1.00
38995;DHT22;24769;18.712;99.000;2024-02-26T08:00:03;34.10;1.00
38995;DHT22;24769;18.712;99.000;2024-02-26T08:02:29;34.10;1.00
38995;DHT22;24769;18.712;99.000;2024-02-26T08:04:56;34.10;1.00
38995;DHT22;24769;18.712;99.000;2024-02-26T08:07:23;33.70;1.00
38995;DHT22;24769;18.712;99.000;2024-02-26T08:09:49;33.90;1.00
38995;DHT22;24769;18.712;99.000;2024-02-26T08:12:16;33.80;1.00
38995;DHT22;24769;18.712;99.000;2024-02-26T08:14:43;34.00;1.00
38995;DHT22;24769;18.712;99.000;2024-02-26T08:17:10;34.10;1.00
38995;DHT22;24769;18.712;99.000;2024-02-26T08:19:37;34.10;1.00
38995;DHT22;24769;18.712;99.000;2024-02-26T08:22:04;34.40;1.00
38995;DHT22;24769;18.712;99.000;2024-02-26T08:24:30;34.40;1.00
38995;DHT22;24769;18.712;99.000;2024-02-26T08:26:57;34.20;1.00
38995;DHT22;24769;18.712;99.000;2024-02-26T08:29:24;34.00;1.00
38995;DHT22;24769;18.712;99.000;2024-02-26T08:31:53;34.00;1.00
38995;DHT22;24769;18.712;99.000;2024-02-26T08:34:20;34.10;1.00
38995;DHT22;24769;18.712;99.000;2024-02-26T08:36:47;34.20;1.00
38995;DHT22;24769;18.712;99.000;2024-02-26T08:39:15;34.10;1.00
38995;DHT22;24769;18.712;99.000;2024-02-26T08:41:44;34.20;1.00
38995;DHT22;24769;18.712;99.000;2024-02-26T08:44:11;34.10;1.00
38995;DHT22;24769;18.712;99.000;2024-02-26T08:46:38;34.30;1.00
38995;DHT22;24769;18.712;99.000;2024-02-26T08:49:05;34.40;1.00
38995;DHT22;24769;18.712;99.000;2024-02-26T08:51:32;34.10;1.00
38995;DHT22;24769;18.712;99.000;2024-02-26T08:53:58;34.10;1.00
38995;DHT22;24769;18.712;99.000;2024-02-26T08:56:25;34.00;1.00
38995;DHT22;24769;18.712;99.000;2024-02-26T08:58:52;34.10;1.00
38995;DHT22;24769;18.712;99.000;2024-02-26T09:01:20;33.90;1.00
38995;DHT22;24769;18.712;99.000;2024-02-26T09:03:47;34.00;1.00
38995;DHT22;24769;18.712;99.000;2024-02-26T09:06:15;34.10;1.00
38995;DHT22;24769;18.712;99.000;2024-02-26T09:08:42;33.80;1.00
38995;DHT22;24769;18.712;99.000;2024-02-26T09:11:08;33.90;1.00
38995;DHT22;24769;18.712;99.000;2024-02-26T09:13:36;33.90;1.00
38995;DHT22;24769;18.712;99.000;2024-02-26T09:16:03;33.90;1.00
38995;DHT22;24769;18.712;99.000;2024-02-26T09:18:30;34.00;1.00
38995;DHT22;24769;18.712;99.000;2024-02-26T09:20:56;34.00;1.00
38995;DHT22;24769;18.712;99.000;2024-02-26T09:23:23;33.90;1.00
38995;DHT22;24769;18.712;99.000;2024-02-26T09:25:50;33.70;1.00
38995;DHT22;24769;18.712;99.000;2024-02-26T09:28:17;33.80;1.00
38995;DHT22;24769;18.712;99.000;2024-02-26T09:30:44;33.70;1.00
38995;DHT22;24769;18.712;99.000;2024-02-26T09:33:11;33.50;1.00
38995;DHT22;24769;18.712;99.000;2024-02-26T09:35:37;33.50;1.00
38995;DHT22;24769;18.712;99.000;2024-02-26T09:38:04;33.50;1.00
38995;DHT22;24769;18.712;99.000;2024-02-26T09:40:31;33.40;1.00
38995;DHT22;24769;18.712;99.000;2024-02-26T09:43:00;33.40;1.00
38995;DHT22;24769;18.712;99.000;2024-02-26T09:45:31;33.40;1.00
38995;DHT22;24769;18.712;99.000;2024-02-26T09:48:03;33.30;1.00
38995;DHT22;24769;18.712;99.000;2024-02-26T09:50:30;33.40;1.00
38995;DHT22;24769;18.712;99.000;2024-02-26T09:52:58;33.20;1.00
38995;DHT22;24769;18.712;99.000;2024-02-26T09:55:28;33.10;1.00
38995;DHT22;24769;18.712;99.000;2024-02-26T09:57:56;33.10;1.00
38995;DHT22;24769;18.712;99.000;2024-02-26T10:00:26;33.00;1.00
38995;DHT22;24769;18.712;99.000;2024-02-26T10:02:57;32.90;1.00
38995;DHT22;24769;18.712;99.000;2024-02-26T10:05:25;32.80;1.00
38995;DHT22;24769;18.712;99.000;2024-02-26T10:07:52;32.80;1.00
38995;DHT22;24769;18.712;99.000;2024-02-26T10:10:22;32.80;1.00
38995;DHT22;24769;18.712;99.000;2024-02-26T10:12:49;32.70;1.00
38995;DHT22;24769;18.712;99.000;2024-02-26T10:15:16;32.80;1.00
38995;DHT22;24769;18.712;99.000;2024-02-26T10:17:42;32.70;1.00
38995;DHT22;24769;18.712;99.000;2024-02-26T10:20:17;32.60;1.00
38995;DHT22;24769;18.712;99.000;2024-02-26T10:22:45;32.40;1.00
38995;DHT22;24769;18.712;99.000;2024-02-26T10:25:11;32.50;1.00
38995;DHT22;24769;18.712;99.000;2024-02-26T10:27:40;32.30;1.00
38995;DHT22;24769;18.712;99.000;2024-02-26T10:30:18;32.20;1.00
38995;DHT22;24769;18.712;99.000;2024-02-26T10:32:52;32.00;1.00
38995;DHT22;24769;18.712;99.000;2024-02-26T10:35:19;32.00;1.00
38995;DHT22;24769;18.712;99.000;2024-02-26T10:37:47;31.90;1.00
38995;DHT22;24769;18.712;99.000;2024-02-26T10:40:15;31.80;1.00
38995;DHT22;24769;18.712;99.000;2024-02-26T10:42:43;31.60;1.00
38995;DHT22;24769;18.712;99.000;2024-02-26T10:45:11;31.40;1.00
38995;DHT22;24769;18.712;99.000;2024-02-26T10:47:38;31.30;1.00
38995;DHT22;24769;18.712;99.000;2024-02-26T10:50:06;31.10;1.00
38995;DHT22;24769;18.712;99.000;2024-02-26T10:52:35;30.80;1.00
38995;DHT22;24769;18.712;99.000;2024-02-26T10:55:04;30.60;1.40
38995;DHT22;24769;18.712;99.000;2024-02-26T10:57:38;30.40;2.60
38995;DHT22;24769;18.712;99.000;2024-02-26T11:00:06;30.10;3.80
38995;DHT22;24769;18.712;99.000;2024-02-26T11:02:37;30.00;5.80
38995;DHT22;24769;18.712;99.000;2024-02-26T11:05:04;29.80;7.10
38995;DHT22;24769;18.712;99.000;2024-02-26T11:07:35;29.60;8.30
38995;DHT22;24769;18.712;99.000;2024-02-26T11:10:05;29.50;9.30
38995;DHT22;24769;18.712;99.000;2024-02-26T11:12:33;29.30;10.30
38995;DHT22;24769;18.712;99.000;2024-02-26T11:15:04;29.10;10.90
38995;DHT22;24769;18.712;99.000;2024-02-26T11:17:32;29.00;11.10
38995;DHT22;24769;18.712;99.000;2024-02-26T11:20:00;28.80;11.50
38995;DHT22;24769;18.712;99.000;2024-02-26T11:22:29;28.60;11.90
38995;DHT22;24769;18.712;99.000;2024-02-26T11:24:57;28.40;12.50
38995;DHT22;24769;18.712;99.000;2024-02-26T11:27:27;28.30;12.20
38995;DHT22;24769;18.712;99.000;2024-02-26T11:29:57;28.20;11.30
38995;DHT22;24769;18.712;99.000;2024-02-26T11:32:27;28.20;10.80
38995;DHT22;24769;18.712;99.000;2024-02-26T11:34:59;28.00;12.10
38995;DHT22;24769;18.712;99.000;2024-02-26T11:37:26;28.00;13.30
38995;DHT22;24769;18.712;99.000;2024-02-26T11:39:53;27.80;13.30
38995;DHT22;24769;18.712;99.000;2024-02-26T11:42:24;27.80;14.80
38995;DHT22;24769;18.712;99.000;2024-02-26T11:44:54;27.60;15.50
38995;DHT22;24769;18.712;99.000;2024-02-26T11:49:34;27.40;15.50
38995;DHT22;24769;18.712;99.000;2024-02-26T11:52:06;27.30;15.10
38995;DHT22;24769;18.712;99.000;2024-02-26T11:54:57;27.20;15.70
38995;DHT22;24769;18.712;99.000;2024-02-26T11:57:39;27.10;16.40
38995;DHT22;24769;18.712;99.000;2024-02-26T12:02:46;27.00;17.20
38995;DHT22;24769;18.712;99.000;2024-02-26T12:05:19;26.90;17.20
38995;DHT22;24769;18.712;99.000;2024-02-26T12:07:53;26.90;17.30
38995;DHT22;24769;18.712;99.000;2024-02-26T12:10:28;26.90;17.90
38995;DHT22;24769;18.712;99.000;2024-02-26T12:13:00;26.80;18.10
38995;DHT22;24769;18.712;99.000;2024-02-26T12:15:33;26.70;18.80
38995;DHT22;24769;18.712;99.000;2024-02-26T12:18:04;26.80;19.30
38995;DHT22;24769;18.712;99.000;2024-02-26T12:20:32;26.70;19.60
38995;DHT22;24769;18.712;99.000;2024-02-26T12:22:59;26.70;19.60
38995;DHT22;24769;18.712;99.000;2024-02-26T12:25:27;26.60;19.50
38995;DHT22;24769;18.712;99.000;2024-02-26T12:27:55;26.60;19.20
38995;DHT22;24769;18.712;99.000;2024-02-26T12:30:23;26.60;20.80
38995;DHT22;24769;18.712;99.000;2024-02-26T12:32:51;26.50;21.40
38995;DHT22;24769;18.712;99.000;2024-02-26T12:35:19;26.30;21.10
38995;DHT22;24769;18.712;99.000;2024-02-26T12:37:46;26.30;21.60
38995;DHT22;24769;18.712;99.000;2024-02-26T12:40:13;26.30;20.60
38995;DHT22;24769;18.712;99.000;2024-02-26T12:42:40;26.30;19.70
38995;DHT22;24769;18.712;99.000;2024-02-26T12:45:09;26.40;20.30
38995;DHT22;24769;18.712;99.000;2024-02-26T12:47:42;26.40;21.50
38995;DHT22;24769;18.712;99.000;2024-02-26T12:50:10;26.30;21.80
38995;DHT22;24769;18.712;99.000;2024-02-26T12:52:40;26.30;22.40
38995;DHT22;24769;18.712;99.000;2024-02-26T12:55:07;26.20;23.90
38995;DHT22;24769;18.712;99.000;2024-02-26T12:57:37;26.00;25.40
38995;DHT22;24769;18.712;99.000;2024-02-26T13:00:08;25.90;25.30
38995;DHT22;24769;18.712;99.000;2024-02-26T13:02:38;26.00;26.30
38995;DHT22;24769;18.712;99.000;2024-02-26T13:05:06;25.90;26.70
38995;DHT22;24769;18.712;99.000;2024-02-26T13:07:34;25.80;28.40
38995;DHT22;24769;18.712;99.000;2024-02-26T13:10:08;26.00;25.00
38995;DHT22;24769;18.712;99.000;2024-02-26T13:12:35;26.10;25.00
38995;DHT22;24769;18.712;99.000;2024-02-26T13:15:03;26.20;24.50
38995;DHT22;24769;18.712;99.000;2024-02-26T13:17:33;26.20;24.90
38995;DHT22;24769;18.712;99.000;2024-02-26T13:20:00;26.10;25.50
38995;DHT22;24769;18.712;99.000;2024-02-26T13:22:27;26.00;27.40
38995;DHT22;24769;18.712;99.000;2024-02-26T13:24:57;25.90;26.60
38995;DHT22;24769;18.712;99.000;2024-02-26T13:27:24;25.80;25.90
38995;DHT22;24769;18.712;99.000;2024-02-26T13:30:04;25.70;26.70
38995;DHT22;24769;18.712;99.000;2024-02-26T13:32:38;25.60;26.30
38995;DHT22;24769;18.712;99.000;2024-02-26T13:35:12;25.50;27.40
38995;DHT22;24769;18.712;99.000;2024-02-26T13:37:40;25.60;27.40
38995;DHT22;24769;18.712;99.000;2024-02-26T13:40:11;25.60;27.60
38995;DHT22;24769;18.712;99.000;2024-02-26T13:42:38;25.40;27.70
38995;DHT22;24769;18.712;99.000;2024-02-26T13:45:06;25.40;28.50
38995;DHT22;24769;18.712;99.000;2024-02-26T13:47:33;25.40;28.90
38995;DHT22;24769;18.712;99.000;2024-02-26T13:50:01;25.20;29.00
38995;DHT22;24769;18.712;99.000;2024-02-26T13:52:27;25.30;28.70
38995;DHT22;24769;18.712;99.000;2024-02-26T13:54:54;25.20;29.80
38995;DHT22;24769;18.712;99.000;2024-02-26T13:57:21;25.40;29.10
38995;DHT22;24769;18.712;99.000;2024-02-26T13:59:48;25.50;27.60
38995;DHT22;24769;18.712;99.000;2024-02-26T14:02:16;25.40;28.40
38995;DHT22;24769;18.712;99.000;2024-02-26T14:04:43;25.50;27.70
38995;DHT22;24769;18.712;99.000;2024-02-26T14:07:11;25.50;28.10
38995;DHT22;24769;18.712;99.000;2024-02-26T14:09:38;25.40;28.50
38995;DHT22;24769;18.712;99.000;2024-02-26T14:12:05;25.30;28.90
38995;DHT22;24769;18.712;99.000;2024-02-26T14:14:32;25.30;29.00
38995;DHT22;24769;18.712;99.000;2024-02-26T14:17:02;25.10;29.70
38995;DHT22;24769;18.712;99.000;2024-02-26T14:19:29;25.00;31.00
38995;DHT22;24769;18.712;99.000;2024-02-26T14:21:56;25.00;30.40
38995;DHT22;24769;18.712;99.000;2024-02-26T14:24:23;25.10;29.80
38995;DHT22;24769;18.712;99.000;2024-02-26T14:26:50;25.00;30.00
38995;DHT22;24769;18.712;99.000;2024-02-26T14:29:16;25.00;30.00
38995;DHT22;24769;18.712;99.000;2024-02-26T14:31:43;25.00;31.30
38995;DHT22;24769;18.712;99.000;2024-02-26T14:34:10;25.00;29.80
38995;DHT22;24769;18.712;99.000;2024-02-26T14:36:36;25.00;30.70
38995;DHT22;24769;18.712;99.000;2024-02-26T14:39:04;25.00;30.90
38995;DHT22;24769;18.712;99.000;2024-02-26T14:41:30;25.00;32.00
38995;DHT22;24769;18.712;99.000;2024-02-26T14:43:57;25.00;33.70
38995;DHT22;24769;18.712;99.000;2024-02-26T14:46:24;24.80;34.50
38995;DHT22;24769;18.712;99.000;2024-02-26T14:48:51;24.70;34.50
38995;DHT22;24769;18.712;99.000;2024-02-26T14:51:17;24.80;35.80
38995;DHT22;24769;18.712;99.000;2024-02-26T14:53:44;24.80;35.30
38995;DHT22;24769;18.712;99.000;2024-02-26T14:56:11;24.80;35.20
38995;DHT22;24769;18.712;99.000;2024-02-26T14:58:38;25.00;33.80
38995;DHT22;24769;18.712;99.000;2024-02-26T15:01:05;25.00;33.80
38995;DHT22;24769;18.712;99.000;2024-02-26T15:03:32;24.90;35.20
38995;DHT22;24769;18.712;99.000;2024-02-26T15:05:59;24.80;36.30
38995;DHT22;24769;18.712;99.000;2024-02-26T15:08:25;24.70;37.90
38995;DHT22;24769;18.712;99.000;2024-02-26T15:10:52;24.60;39.10
38995;DHT22;24769;18.712;99.000;2024-02-26T15:13:19;24.60;39.50
38995;DHT22;24769;18.712;99.000;2024-02-26T15:15:45;24.60;39.40
38995;DHT22;24769;18.712;99.000;2024-02-26T15:18:12;24.60;39.40
38995;DHT22;24769;18.712;99.000;2024-02-26T15:20:42;24.60;40.40
38995;DHT22;24769;18.712;99.000;2024-02-26T15:23:09;24.50;40.80
38995;DHT22;24769;18.712;99.000;2024-02-26T15:25:39;24.40;42.00
38995;DHT22;24769;18.712;99.000;2024-02-26T15:28:08;24.40;42.60
38995;DHT22;24769;18.712;99.000;2024-02-26T15:30:37;24.40;44.00
38995;DHT22;24769;18.712;99.000;2024-02-26T15:33:04;24.30;44.30